Terminal Aerodrome Forecast
Issued by NWS

Home | Current Version | Previous Version | Text Only | Print | Product List | Glossary On
Versions: 1 2 3 4 5 6 7 8 9 10 11 12 13 14 15 16 17
000
FTAK31 PAJN 300540
TAFAKT
TAF
PAKT 300540Z 3006/3106 14005KT P6SM BKN150
     FM301000 33003KT P6SM BKN150
     FM301800 31008KT P6SM SCT100
     FM310100 13007KT P6SM BKN100
      AMD LTD TO CLD VIS AND WIND 3006/3015=

USA.gov is the U.S. government's official web portal to all federal, state and local government web resources and services.